sensor_id;sensor_type;location;lat;lon;timestamp;pressure;altitude;pressure_sealevel;temperature
19040;BMP180;9652;49.014;12.052;2023-06-05T00:01:38;97986.00;;;21.60
19040;BMP180;9652;49.014;12.052;2023-06-05T00:04:05;97987.00;;;21.60
19040;BMP180;9652;49.014;12.052;2023-06-05T00:06:34;97972.00;;;21.50
19040;BMP180;9652;49.014;12.052;2023-06-05T00:09:03;97978.00;;;21.50
19040;BMP180;9652;49.014;12.052;2023-06-05T00:11:30;97981.00;;;21.50
19040;BMP180;9652;49.014;12.052;2023-06-05T00:13:57;97982.00;;;21.50
19040;BMP180;9652;49.014;12.052;2023-06-05T00:16:24;97977.00;;;21.50
19040;BMP180;9652;49.014;12.052;2023-06-05T00:18:51;97980.00;;;21.50
19040;BMP180;9652;49.014;12.052;2023-06-05T00:21:18;97977.00;;;21.40
19040;BMP180;9652;49.014;12.052;2023-06-05T00:23:47;97984.00;;;21.40
19040;BMP180;9652;49.014;12.052;2023-06-05T00:26:14;97975.00;;;21.40
19040;BMP180;9652;49.014;12.052;2023-06-05T00:28:41;97980.00;;;21.40
19040;BMP180;9652;49.014;12.052;2023-06-05T00:31:08;97977.00;;;21.30
19040;BMP180;9652;49.014;12.052;2023-06-05T00:33:35;97980.00;;;21.30
19040;BMP180;9652;49.014;12.052;2023-06-05T00:36:03;97988.00;;;21.30
19040;BMP180;9652;49.014;12.052;2023-06-05T00:38:30;97986.00;;;21.20
19040;BMP180;9652;49.014;12.052;2023-06-05T00:40:58;97985.00;;;21.20
19040;BMP180;9652;49.014;12.052;2023-06-05T00:43:25;97979.00;;;21.10
19040;BMP180;9652;49.014;12.052;2023-06-05T00:46:01;97982.00;;;21.10
19040;BMP180;9652;49.014;12.052;2023-06-05T00:48:30;97982.00;;;21.10
19040;BMP180;9652;49.014;12.052;2023-06-05T00:50:59;97981.00;;;21.00
19040;BMP180;9652;49.014;12.052;2023-06-05T00:53:27;97977.00;;;21.00
19040;BMP180;9652;49.014;12.052;2023-06-05T00:55:58;97978.00;;;21.00
19040;BMP180;9652;49.014;12.052;2023-06-05T00:58:27;97975.00;;;21.00
19040;BMP180;9652;49.014;12.052;2023-06-05T01:00:56;97971.00;;;20.90
19040;BMP180;9652;49.014;12.052;2023-06-05T01:03:24;97972.00;;;20.90
19040;BMP180;9652;49.014;12.052;2023-06-05T01:05:57;97972.00;;;20.90
19040;BMP180;9652;49.014;12.052;2023-06-05T01:08:30;97994.00;;;20.90
19040;BMP180;9652;49.014;12.052;2023-06-05T01:11:13;97976.00;;;20.80
19040;BMP180;9652;49.014;12.052;2023-06-05T01:13:50;97974.00;;;20.80
19040;BMP180;9652;49.014;12.052;2023-06-05T01:16:19;97978.00;;;20.80
19040;BMP180;9652;49.014;12.052;2023-06-05T01:18:58;97982.00;;;20.80
19040;BMP180;9652;49.014;12.052;2023-06-05T01:21:29;97984.00;;;20.80
19040;BMP180;9652;49.014;12.052;2023-06-05T01:23:57;97984.00;;;20.80
19040;BMP180;9652;49.014;12.052;2023-06-05T01:26:39;97981.00;;;20.70
19040;BMP180;9652;49.014;12.052;2023-06-05T01:29:14;97971.00;;;20.70
19040;BMP180;9652;49.014;12.052;2023-06-05T01:31:45;97971.00;;;20.70
19040;BMP180;9652;49.014;12.052;2023-06-05T01:34:15;97962.00;;;20.70
19040;BMP180;9652;49.014;12.052;2023-06-05T01:36:47;97960.00;;;20.60
19040;BMP180;9652;49.014;12.052;2023-06-05T01:39:16;97904.00;;;20.60
19040;BMP180;9652;49.014;12.052;2023-06-05T01:41:45;97968.00;;;20.60
19040;BMP180;9652;49.014;12.052;2023-06-05T01:44:14;97964.00;;;20.50
19040;BMP180;9652;49.014;12.052;2023-06-05T01:46:44;97918.00;;;20.50
19040;BMP180;9652;49.014;12.052;2023-06-05T01:49:11;97958.00;;;20.50
19040;BMP180;9652;49.014;12.052;2023-06-05T01:51:38;97964.00;;;20.50
19040;BMP180;9652;49.014;12.052;2023-06-05T01:54:05;97956.00;;;20.50
19040;BMP180;9652;49.014;12.052;2023-06-05T01:56:34;97965.00;;;20.40
19040;BMP180;9652;49.014;12.052;2023-06-05T01:59:02;97963.00;;;20.40
19040;BMP180;9652;49.014;12.052;2023-06-05T02:01:33;97926.00;;;20.40
19040;BMP180;9652;49.014;12.052;2023-06-05T02:04:01;97924.00;;;20.40
19040;BMP180;9652;49.014;12.052;2023-06-05T02:06:34;97945.00;;;20.40
19040;BMP180;9652;49.014;12.052;2023-06-05T02:09:08;97945.00;;;20.30
19040;BMP180;9652;49.014;12.052;2023-06-05T02:11:37;97951.00;;;20.30
19040;BMP180;9652;49.014;12.052;2023-06-05T02:14:06;97945.00;;;20.30
19040;BMP180;9652;49.014;12.052;2023-06-05T02:16:33;97941.00;;;20.20
19040;BMP180;9652;49.014;12.052;2023-06-05T02:19:02;97937.00;;;20.20
19040;BMP180;9652;49.014;12.052;2023-06-05T02:21:30;97923.00;;;20.10
19040;BMP180;9652;49.014;12.052;2023-06-05T02:23:59;97927.00;;;20.10
19040;BMP180;9652;49.014;12.052;2023-06-05T02:26:26;97927.00;;;20.10
19040;BMP180;9652;49.014;12.052;2023-06-05T02:28:57;97935.00;;;19.70
19040;BMP180;9652;49.014;12.052;2023-06-05T02:31:25;97937.00;;;19.90
19040;BMP180;9652;49.014;12.052;2023-06-05T02:33:56;97933.00;;;19.90
19040;BMP180;9652;49.014;12.052;2023-06-05T02:36:24;97921.00;;;19.90
19040;BMP180;9652;49.014;12.052;2023-06-05T02:38:52;97938.00;;;19.80
19040;BMP180;9652;49.014;12.052;2023-06-05T02:41:21;97933.00;;;19.80
19040;BMP180;9652;49.014;12.052;2023-06-05T02:43:48;97934.00;;;19.70
19040;BMP180;9652;49.014;12.052;2023-06-05T02:46:17;97936.00;;;19.70
19040;BMP180;9652;49.014;12.052;2023-06-05T02:48:45;97934.00;;;19.60
19040;BMP180;9652;49.014;12.052;2023-06-05T02:51:13;97923.00;;;19.60
19040;BMP180;9652;49.014;12.052;2023-06-05T02:53:42;97930.00;;;19.50
19040;BMP180;9652;49.014;12.052;2023-06-05T02:56:10;97913.00;;;19.50
19040;BMP180;9652;49.014;12.052;2023-06-05T02:58:38;97930.00;;;19.40
19040;BMP180;9652;49.014;12.052;2023-06-05T03:01:10;97939.00;;;19.40
19040;BMP180;9652;49.014;12.052;2023-06-05T03:03:43;97931.00;;;19.40
19040;BMP180;9652;49.014;12.052;2023-06-05T03:06:11;97933.00;;;19.40
19040;BMP180;9652;49.014;12.052;2023-06-05T03:08:44;97930.00;;;19.40
19040;BMP180;9652;49.014;12.052;2023-06-05T03:11:16;97920.00;;;19.30
19040;BMP180;9652;49.014;12.052;2023-06-05T03:13:43;97862.00;;;19.30
19040;BMP180;9652;49.014;12.052;2023-06-05T03:16:10;97929.00;;;19.30
19040;BMP180;9652;49.014;12.052;2023-06-05T03:18:45;97923.00;;;19.30
19040;BMP180;9652;49.014;12.052;2023-06-05T03:21:15;97919.00;;;19.30
19040;BMP180;9652;49.014;12.052;2023-06-05T03:23:42;97925.00;;;19.30
19040;BMP180;9652;49.014;12.052;2023-06-05T03:26:12;97918.00;;;19.30
19040;BMP180;9652;49.014;12.052;2023-06-05T03:28:39;97913.00;;;19.30
19040;BMP180;9652;49.014;12.052;2023-06-05T03:31:09;97914.00;;;19.20
19040;BMP180;9652;49.014;12.052;2023-06-05T03:33:42;97922.00;;;19.20
19040;BMP180;9652;49.014;12.052;2023-06-05T03:36:11;97929.00;;;19.20
19040;BMP180;9652;49.014;12.052;2023-06-05T03:38:38;97913.00;;;19.20
19040;BMP180;9652;49.014;12.052;2023-06-05T03:41:05;97917.00;;;19.20
19040;BMP180;9652;49.014;12.052;2023-06-05T03:43:32;97921.00;;;19.20
19040;BMP180;9652;49.014;12.052;2023-06-05T03:45:59;97932.00;;;19.20
19040;BMP180;9652;49.014;12.052;2023-06-05T03:48:27;97927.00;;;19.20
19040;BMP180;9652;49.014;12.052;2023-06-05T03:50:56;97934.00;;;19.20
19040;BMP180;9652;49.014;12.052;2023-06-05T03:53:25;97931.00;;;19.20
19040;BMP180;9652;49.014;12.052;2023-06-05T03:55:55;97941.00;;;19.20
19040;BMP180;9652;49.014;12.052;2023-06-05T03:58:26;97943.00;;;19.20
19040;BMP180;9652;49.014;12.052;2023-06-05T04:00:56;97939.00;;;19.20
19040;BMP180;9652;49.014;12.052;2023-06-05T04:03:23;97935.00;;;19.30
19040;BMP180;9652;49.014;12.052;2023-06-05T04:05:54;97935.00;;;19.30
19040;BMP180;9652;49.014;12.052;2023-06-05T04:08:21;97938.00;;;19.30
19040;BMP180;9652;49.014;12.052;2023-06-05T04:10:50;97943.00;;;19.30
19040;BMP180;9652;49.014;12.052;2023-06-05T04:13:17;97949.00;;;19.40
19040;BMP180;9652;49.014;12.052;2023-06-05T04:15:45;97951.00;;;19.40
19040;BMP180;9652;49.014;12.052;2023-06-05T04:18:12;97956.00;;;19.40
19040;BMP180;9652;49.014;12.052;2023-06-05T04:20:39;97952.00;;;19.40
19040;BMP180;9652;49.014;12.052;2023-06-05T04:23:08;97956.00;;;19.50
19040;BMP180;9652;49.014;12.052;2023-06-05T04:25:39;97962.00;;;19.50
19040;BMP180;9652;49.014;12.052;2023-06-05T04:28:13;97955.00;;;19.50
19040;BMP180;9652;49.014;12.052;2023-06-05T04:30:41;97954.00;;;19.60
19040;BMP180;9652;49.014;12.052;2023-06-05T04:33:08;97954.00;;;19.60
19040;BMP180;9652;49.014;12.052;2023-06-05T04:35:37;97959.00;;;19.60
19040;BMP180;9652;49.014;12.052;2023-06-05T04:38:04;97949.00;;;19.60
19040;BMP180;9652;49.014;12.052;2023-06-05T04:40:31;97951.00;;;19.60
19040;BMP180;9652;49.014;12.052;2023-06-05T04:42:59;97942.00;;;19.70
19040;BMP180;9652;49.014;12.052;2023-06-05T04:45:28;97936.00;;;19.70
19040;BMP180;9652;49.014;12.052;2023-06-05T04:47:55;97941.00;;;19.80
19040;BMP180;9652;49.014;12.052;2023-06-05T04:50:25;97941.00;;;19.80
19040;BMP180;9652;49.014;12.052;2023-06-05T04:52:57;97947.00;;;19.80
19040;BMP180;9652;49.014;12.052;2023-06-05T04:55:24;97946.00;;;19.80
19040;BMP180;9652;49.014;12.052;2023-06-05T04:57:53;97941.00;;;19.90
19040;BMP180;9652;49.014;12.052;2023-06-05T05:00:28;97936.00;;;19.90
19040;BMP180;9652;49.014;12.052;2023-06-05T05:02:55;97944.00;;;19.90
19040;BMP180;9652;49.014;12.052;2023-06-05T05:05:22;97937.00;;;20.00
19040;BMP180;9652;49.014;12.052;2023-06-05T05:07:52;97938.00;;;20.00
19040;BMP180;9652;49.014;12.052;2023-06-05T05:10:20;97939.00;;;20.10
19040;BMP180;9652;49.014;12.052;2023-06-05T05:12:48;97942.00;;;20.10
19040;BMP180;9652;49.014;12.052;2023-06-05T05:15:16;97938.00;;;20.20
19040;BMP180;9652;49.014;12.052;2023-06-05T05:17:44;97938.00;;;20.20
19040;BMP180;9652;49.014;12.052;2023-06-05T05:20:11;97941.00;;;20.30
19040;BMP180;9652;49.014;12.052;2023-06-05T05:22:39;97941.00;;;20.30
19040;BMP180;9652;49.014;12.052;2023-06-05T05:25:07;97940.00;;;20.30
19040;BMP180;9652;49.014;12.052;2023-06-05T05:27:35;97935.00;;;20.40
19040;BMP180;9652;49.014;12.052;2023-06-05T05:30:02;97944.00;;;20.40
19040;BMP180;9652;49.014;12.052;2023-06-05T05:32:30;97943.00;;;20.40
19040;BMP180;9652;49.014;12.052;2023-06-05T05:34:58;97952.00;;;20.40
19040;BMP180;9652;49.014;12.052;2023-06-05T05:37:26;97948.00;;;20.40
19040;BMP180;9652;49.014;12.052;2023-06-05T05:39:53;97947.00;;;20.40
19040;BMP180;9652;49.014;12.052;2023-06-05T05:42:20;97953.00;;;20.50
19040;BMP180;9652;49.014;12.052;2023-06-05T05:44:47;97950.00;;;20.50
19040;BMP180;9652;49.014;12.052;2023-06-05T05:47:14;97948.00;;;20.50
19040;BMP180;9652;49.014;12.052;2023-06-05T05:49:41;97952.00;;;20.50
19040;BMP180;9652;49.014;12.052;2023-06-05T05:52:10;97947.00;;;20.60
19040;BMP180;9652;49.014;12.052;2023-06-05T05:54:37;97948.00;;;20.60
19040;BMP180;9652;49.014;12.052;2023-06-05T05:57:04;97948.00;;;20.50
19040;BMP180;9652;49.014;12.052;2023-06-05T05:59:33;97947.00;;;20.60
19040;BMP180;9652;49.014;12.052;2023-06-05T06:02:00;97948.00;;;20.70
19040;BMP180;9652;49.014;12.052;2023-06-05T06:04:34;97941.00;;;20.70
19040;BMP180;9652;49.014;12.052;2023-06-05T06:07:01;97953.00;;;20.70
19040;BMP180;9652;49.014;12.052;2023-06-05T06:09:30;97948.00;;;20.80
19040;BMP180;9652;49.014;12.052;2023-06-05T06:11:57;97943.00;;;20.90
19040;BMP180;9652;49.014;12.052;2023-06-05T06:14:28;97945.00;;;21.00
19040;BMP180;9652;49.014;12.052;2023-06-05T06:16:55;97942.00;;;21.20
19040;BMP180;9652;49.014;12.052;2023-06-05T06:19:23;97873.00;;;21.30
19040;BMP180;9652;49.014;12.052;2023-06-05T06:21:51;97942.00;;;21.50
19040;BMP180;9652;49.014;12.052;2023-06-05T06:24:18;97943.00;;;21.60
19040;BMP180;9652;49.014;12.052;2023-06-05T06:26:49;97940.00;;;21.80
19040;BMP180;9652;49.014;12.052;2023-06-05T06:29:19;97934.00;;;21.90
19040;BMP180;9652;49.014;12.052;2023-06-05T06:31:46;97935.00;;;22.10
19040;BMP180;9652;49.014;12.052;2023-06-05T06:34:15;97935.00;;;22.10
19040;BMP180;9652;49.014;12.052;2023-06-05T06:36:42;97927.00;;;22.30
19040;BMP180;9652;49.014;12.052;2023-06-05T06:39:10;97941.00;;;22.40
19040;BMP180;9652;49.014;12.052;2023-06-05T06:41:39;97943.00;;;22.50
19040;BMP180;9652;49.014;12.052;2023-06-05T06:44:07;97945.00;;;22.60
19040;BMP180;9652;49.014;12.052;2023-06-05T06:46:34;97935.00;;;22.70
19040;BMP180;9652;49.014;12.052;2023-06-05T06:49:02;97935.00;;;22.70
19040;BMP180;9652;49.014;12.052;2023-06-05T06:51:28;97949.00;;;22.70
19040;BMP180;9652;49.014;12.052;2023-06-05T06:53:55;97949.00;;;22.80
19040;BMP180;9652;49.014;12.052;2023-06-05T06:56:22;97953.00;;;22.80
19040;BMP180;9652;49.014;12.052;2023-06-05T06:58:53;97930.00;;;22.80
19040;BMP180;9652;49.014;12.052;2023-06-05T07:01:22;97942.00;;;22.90
19040;BMP180;9652;49.014;12.052;2023-06-05T07:03:49;97903.00;;;23.00
19040;BMP180;9652;49.014;12.052;2023-06-05T07:06:16;97931.00;;;23.00
19040;BMP180;9652;49.014;12.052;2023-06-05T07:08:47;97935.00;;;23.00
19040;BMP180;9652;49.014;12.052;2023-06-05T07:11:14;97937.00;;;23.00
19040;BMP180;9652;49.014;12.052;2023-06-05T07:13:41;97934.00;;;23.10
19040;BMP180;9652;49.014;12.052;2023-06-05T07:16:08;97936.00;;;23.10
19040;BMP180;9652;49.014;12.052;2023-06-05T07:18:36;97942.00;;;23.20
19040;BMP180;9652;49.014;12.052;2023-06-05T07:21:03;97892.00;;;23.20
19040;BMP180;9652;49.014;12.052;2023-06-05T07:23:30;97933.00;;;23.20
19040;BMP180;9652;49.014;12.052;2023-06-05T07:25:58;97930.00;;;23.30
19040;BMP180;9652;49.014;12.052;2023-06-05T07:28:25;97939.00;;;23.30
19040;BMP180;9652;49.014;12.052;2023-06-05T07:30:52;97940.00;;;23.30
19040;BMP180;9652;49.014;12.052;2023-06-05T07:33:19;97942.00;;;23.40
19040;BMP180;9652;49.014;12.052;2023-06-05T07:35:47;97936.00;;;23.40
19040;BMP180;9652;49.014;12.052;2023-06-05T07:38:14;97940.00;;;23.40
19040;BMP180;9652;49.014;12.052;2023-06-05T07:40:41;97934.00;;;23.40
19040;BMP180;9652;49.014;12.052;2023-06-05T07:43:08;97941.00;;;23.50
19040;BMP180;9652;49.014;12.052;2023-06-05T07:45:39;97936.00;;;23.50
19040;BMP180;9652;49.014;12.052;2023-06-05T07:48:07;97930.00;;;23.50
19040;BMP180;9652;49.014;12.052;2023-06-05T07:50:34;97940.00;;;23.60
19040;BMP180;9652;49.014;12.052;2023-06-05T07:53:03;97918.00;;;23.60
19040;BMP180;9652;49.014;12.052;2023-06-05T07:55:30;97891.00;;;23.60
19040;BMP180;9652;49.014;12.052;2023-06-05T07:57:57;97926.00;;;23.60
19040;BMP180;9652;49.014;12.052;2023-06-05T08:00:26;97927.00;;;23.70
19040;BMP180;9652;49.014;12.052;2023-06-05T08:02:54;97919.00;;;23.80
19040;BMP180;9652;49.014;12.052;2023-06-05T08:05:20;97924.00;;;23.80
19040;BMP180;9652;49.014;12.052;2023-06-05T08:07:47;97927.00;;;23.90
19040;BMP180;9652;49.014;12.052;2023-06-05T08:10:16;97919.00;;;24.00
19040;BMP180;9652;49.014;12.052;2023-06-05T08:12:43;97910.00;;;24.10
19040;BMP180;9652;49.014;12.052;2023-06-05T08:15:10;97919.00;;;24.10
19040;BMP180;9652;49.014;12.052;2023-06-05T08:17:37;97925.00;;;24.20
19040;BMP180;9652;49.014;12.052;2023-06-05T08:20:06;97920.00;;;24.20
19040;BMP180;9652;49.014;12.052;2023-06-05T08:22:34;97918.00;;;24.30
19040;BMP180;9652;49.014;12.052;2023-06-05T08:25:02;97916.00;;;24.40
19040;BMP180;9652;49.014;12.052;2023-06-05T08:27:31;97915.00;;;24.40
19040;BMP180;9652;49.014;12.052;2023-06-05T08:29:58;97915.00;;;24.50
19040;BMP180;9652;49.014;12.052;2023-06-05T08:32:26;97911.00;;;24.60
19040;BMP180;9652;49.014;12.052;2023-06-05T08:34:53;97918.00;;;24.70
19040;BMP180;9652;49.014;12.052;2023-06-05T08:37:20;97916.00;;;24.80
19040;BMP180;9652;49.014;12.052;2023-06-05T08:39:47;97912.00;;;24.80
19040;BMP180;9652;49.014;12.052;2023-06-05T08:42:16;97919.00;;;24.90
19040;BMP180;9652;49.014;12.052;2023-06-05T08:44:46;97917.00;;;25.00
19040;BMP180;9652;49.014;12.052;2023-06-05T08:47:15;97915.00;;;25.00
19040;BMP180;9652;49.014;12.052;2023-06-05T08:49:42;97908.00;;;25.10
19040;BMP180;9652;49.014;12.052;2023-06-05T08:52:11;97898.00;;;25.10
19040;BMP180;9652;49.014;12.052;2023-06-05T08:54:40;97901.00;;;25.20
19040;BMP180;9652;49.014;12.052;2023-06-05T08:57:08;97902.00;;;25.20
19040;BMP180;9652;49.014;12.052;2023-06-05T08:59:36;97897.00;;;25.20
19040;BMP180;9652;49.014;12.052;2023-06-05T09:02:05;97907.00;;;25.30
19040;BMP180;9652;49.014;12.052;2023-06-05T09:04:33;97916.00;;;25.30
19040;BMP180;9652;49.014;12.052;2023-06-05T09:07:00;97906.00;;;25.40
19040;BMP180;9652;49.014;12.052;2023-06-05T09:09:27;97899.00;;;25.40
19040;BMP180;9652;49.014;12.052;2023-06-05T09:12:03;97906.00;;;25.50
19040;BMP180;9652;49.014;12.052;2023-06-05T09:14:31;97902.00;;;25.60
19040;BMP180;9652;49.014;12.052;2023-06-05T09:17:00;97894.00;;;25.70
19040;BMP180;9652;49.014;12.052;2023-06-05T09:19:37;97900.00;;;25.80
19040;BMP180;9652;49.014;12.052;2023-06-05T09:22:06;97902.00;;;25.90
19040;BMP180;9652;49.014;12.052;2023-06-05T09:24:34;97903.00;;;26.00
19040;BMP180;9652;49.014;12.052;2023-06-05T09:27:03;97903.00;;;26.10
19040;BMP180;9652;49.014;12.052;2023-06-05T09:29:33;97896.00;;;26.20
19040;BMP180;9652;49.014;12.052;2023-06-05T09:32:02;97901.00;;;26.30
19040;BMP180;9652;49.014;12.052;2023-06-05T09:34:31;97905.00;;;26.40
19040;BMP180;9652;49.014;12.052;2023-06-05T09:37:02;97888.00;;;26.50
19040;BMP180;9652;49.014;12.052;2023-06-05T09:39:33;97899.00;;;26.50
19040;BMP180;9652;49.014;12.052;2023-06-05T09:42:01;97905.00;;;26.60
19040;BMP180;9652;49.014;12.052;2023-06-05T09:44:30;97899.00;;;26.70
19040;BMP180;9652;49.014;12.052;2023-06-05T09:46:59;97888.00;;;26.80
19040;BMP180;9652;49.014;12.052;2023-06-05T09:49:30;97887.00;;;26.90
19040;BMP180;9652;49.014;12.052;2023-06-05T09:52:00;97896.00;;;27.00
19040;BMP180;9652;49.014;12.052;2023-06-05T09:54:29;97889.00;;;27.10
19040;BMP180;9652;49.014;12.052;2023-06-05T09:57:00;97873.00;;;27.10
19040;BMP180;9652;49.014;12.052;2023-06-05T09:59:29;97881.00;;;27.20
19040;BMP180;9652;49.014;12.052;2023-06-05T10:02:01;97875.00;;;27.30
19040;BMP180;9652;49.014;12.052;2023-06-05T10:04:46;97876.00;;;27.30
19040;BMP180;9652;49.014;12.052;2023-06-05T10:07:15;97888.00;;;27.40
19040;BMP180;9652;49.014;12.052;2023-06-05T10:09:44;97880.00;;;27.50
19040;BMP180;9652;49.014;12.052;2023-06-05T10:12:11;97887.00;;;27.50
19040;BMP180;9652;49.014;12.052;2023-06-05T10:14:41;97891.00;;;27.60
19040;BMP180;9652;49.014;12.052;2023-06-05T10:17:12;97888.00;;;27.60
19040;BMP180;9652;49.014;12.052;2023-06-05T10:19:42;97888.00;;;27.70
19040;BMP180;9652;49.014;12.052;2023-06-05T10:22:10;97883.00;;;27.70
19040;BMP180;9652;49.014;12.052;2023-06-05T10:24:44;97885.00;;;27.70
19040;BMP180;9652;49.014;12.052;2023-06-05T10:27:43;97884.00;;;27.70
19040;BMP180;9652;49.014;12.052;2023-06-05T10:34:14;97881.00;;;27.80
19040;BMP180;9652;49.014;12.052;2023-06-05T10:37:36;97888.00;;;27.80
19040;BMP180;9652;49.014;12.052;2023-06-05T10:40:08;97876.00;;;27.80
19040;BMP180;9652;49.014;12.052;2023-06-05T10:42:37;97878.00;;;27.80
19040;BMP180;9652;49.014;12.052;2023-06-05T10:45:05;97875.00;;;27.70
19040;BMP180;9652;49.014;12.052;2023-06-05T10:47:48;97881.00;;;27.70
19040;BMP180;9652;49.014;12.052;2023-06-05T10:50:27;97885.00;;;27.70
19040;BMP180;9652;49.014;12.052;2023-06-05T10:52:56;97873.00;;;27.70
19040;BMP180;9652;49.014;12.052;2023-06-05T10:55:27;97860.00;;;27.80
19040;BMP180;9652;49.014;12.052;2023-06-05T10:58:10;97871.00;;;27.90
19040;BMP180;9652;49.014;12.052;2023-06-05T11:01:19;97876.00;;;28.00
19040;BMP180;9652;49.014;12.052;2023-06-05T11:03:56;97867.00;;;28.10
19040;BMP180;9652;49.014;12.052;2023-06-05T11:06:24;97868.00;;;28.20
19040;BMP180;9652;49.014;12.052;2023-06-05T11:09:12;97876.00;;;28.30
19040;BMP180;9652;49.014;12.052;2023-06-05T11:11:58;97872.00;;;28.30
19040;BMP180;9652;49.014;12.052;2023-06-05T11:14:44;97862.00;;;28.30
19040;BMP180;9652;49.014;12.052;2023-06-05T11:17:28;97864.00;;;28.30
19040;BMP180;9652;49.014;12.052;2023-06-05T11:19:55;97844.00;;;28.30
19040;BMP180;9652;49.014;12.052;2023-06-05T11:22:22;97861.00;;;28.30
19040;BMP180;9652;49.014;12.052;2023-06-05T11:25:26;97857.00;;;28.40
19040;BMP180;9652;49.014;12.052;2023-06-05T11:27:57;97857.00;;;28.50
19040;BMP180;9652;49.014;12.052;2023-06-05T11:30:28;97844.00;;;28.60
19040;BMP180;9652;49.014;12.052;2023-06-05T11:33:05;97843.00;;;28.80
19040;BMP180;9652;49.014;12.052;2023-06-05T11:35:35;97839.00;;;28.90
19040;BMP180;9652;49.014;12.052;2023-06-05T11:38:09;97850.00;;;29.00
19040;BMP180;9652;49.014;12.052;2023-06-05T11:40:37;97856.00;;;29.10
19040;BMP180;9652;49.014;12.052;2023-06-05T11:43:08;97847.00;;;29.10
19040;BMP180;9652;49.014;12.052;2023-06-05T11:45:37;97844.00;;;29.00
19040;BMP180;9652;49.014;12.052;2023-06-05T11:48:06;97855.00;;;29.00
19040;BMP180;9652;49.014;12.052;2023-06-05T11:50:34;97859.00;;;28.90
19040;BMP180;9652;49.014;12.052;2023-06-05T11:53:05;97854.00;;;28.80
19040;BMP180;9652;49.014;12.052;2023-06-05T11:55:32;97848.00;;;28.70
19040;BMP180;9652;49.014;12.052;2023-06-05T11:58:11;97860.00;;;28.60
19040;BMP180;9652;49.014;12.052;2023-06-05T12:00:38;97860.00;;;28.40
19040;BMP180;9652;49.014;12.052;2023-06-05T12:03:05;97860.00;;;28.30
19040;BMP180;9652;49.014;12.052;2023-06-05T12:05:32;97859.00;;;28.20
19040;BMP180;9652;49.014;12.052;2023-06-05T12:08:23;97861.00;;;28.00
19040;BMP180;9652;49.014;12.052;2023-06-05T12:10:51;97856.00;;;28.00
19040;BMP180;9652;49.014;12.052;2023-06-05T12:13:20;97849.00;;;27.90
19040;BMP180;9652;49.014;12.052;2023-06-05T12:15:57;97851.00;;;27.80
19040;BMP180;9652;49.014;12.052;2023-06-05T12:18:31;97868.00;;;27.70
19040;BMP180;9652;49.014;12.052;2023-06-05T12:20:59;97843.00;;;27.70
19040;BMP180;9652;49.014;12.052;2023-06-05T12:23:29;97849.00;;;27.60
19040;BMP180;9652;49.014;12.052;2023-06-05T12:25:59;97845.00;;;27.60
19040;BMP180;9652;49.014;12.052;2023-06-05T12:28:28;97856.00;;;27.50
19040;BMP180;9652;49.014;12.052;2023-06-05T12:30:56;97847.00;;;27.50
19040;BMP180;9652;49.014;12.052;2023-06-05T12:33:23;97849.00;;;27.40
19040;BMP180;9652;49.014;12.052;2023-06-05T12:36:03;97845.00;;;27.40
19040;BMP180;9652;49.014;12.052;2023-06-05T12:38:36;97859.00;;;27.50
19040;BMP180;9652;49.014;12.052;2023-06-05T12:41:03;97860.00;;;27.60
19040;BMP180;9652;49.014;12.052;2023-06-05T12:43:33;97849.00;;;27.60
19040;BMP180;9652;49.014;12.052;2023-06-05T12:46:00;97871.00;;;27.70
19040;BMP180;9652;49.014;12.052;2023-06-05T12:48:27;97857.00;;;27.80
19040;BMP180;9652;49.014;12.052;2023-06-05T12:50:55;97859.00;;;27.90
19040;BMP180;9652;49.014;12.052;2023-06-05T12:53:23;97858.00;;;28.00
19040;BMP180;9652;49.014;12.052;2023-06-05T12:55:51;97859.00;;;28.10
19040;BMP180;9652;49.014;12.052;2023-06-05T12:58:18;97853.00;;;28.20
19040;BMP180;9652;49.014;12.052;2023-06-05T13:00:46;97850.00;;;28.30
19040;BMP180;9652;49.014;12.052;2023-06-05T13:03:14;97845.00;;;28.50
19040;BMP180;9652;49.014;12.052;2023-06-05T13:05:42;97838.00;;;28.70
19040;BMP180;9652;49.014;12.052;2023-06-05T13:08:09;97841.00;;;29.00
19040;BMP180;9652;49.014;12.052;2023-06-05T13:10:36;97841.00;;;29.30
19040;BMP180;9652;49.014;12.052;2023-06-05T13:13:03;97810.00;;;29.70
19040;BMP180;9652;49.014;12.052;2023-06-05T13:15:30;97839.00;;;30.10
19040;BMP180;9652;49.014;12.052;2023-06-05T13:17:59;97840.00;;;30.40
19040;BMP180;9652;49.014;12.052;2023-06-05T13:20:26;97833.00;;;30.60
19040;BMP180;9652;49.014;12.052;2023-06-05T13:22:53;97842.00;;;30.70
19040;BMP180;9652;49.014;12.052;2023-06-05T13:25:20;97840.00;;;30.70
19040;BMP180;9652;49.014;12.052;2023-06-05T13:27:47;97845.00;;;30.70
19040;BMP180;9652;49.014;12.052;2023-06-05T13:30:14;97843.00;;;30.80
19040;BMP180;9652;49.014;12.052;2023-06-05T13:32:41;97838.00;;;30.90
19040;BMP180;9652;49.014;12.052;2023-06-05T13:35:12;97843.00;;;30.90
19040;BMP180;9652;49.014;12.052;2023-06-05T13:37:39;97840.00;;;31.00
19040;BMP180;9652;49.014;12.052;2023-06-05T13:40:07;97853.00;;;30.90
19040;BMP180;9652;49.014;12.052;2023-06-05T13:42:36;97851.00;;;30.90
19040;BMP180;9652;49.014;12.052;2023-06-05T13:45:04;97849.00;;;30.90
19040;BMP180;9652;49.014;12.052;2023-06-05T13:47:31;97848.00;;;30.90
19040;BMP180;9652;49.014;12.052;2023-06-05T13:49:59;97847.00;;;30.80
19040;BMP180;9652;49.014;12.052;2023-06-05T13:52:27;97843.00;;;30.90
19040;BMP180;9652;49.014;12.052;2023-06-05T13:54:54;97855.00;;;31.10
19040;BMP180;9652;49.014;12.052;2023-06-05T13:57:21;97851.00;;;31.20
19040;BMP180;9652;49.014;12.052;2023-06-05T13:59:48;97851.00;;;31.40
19040;BMP180;9652;49.014;12.052;2023-06-05T14:02:15;97854.00;;;31.50
19040;BMP180;9652;49.014;12.052;2023-06-05T14:04:42;97867.00;;;31.50
19040;BMP180;9652;49.014;12.052;2023-06-05T14:07:09;97851.00;;;31.30
19040;BMP180;9652;49.014;12.052;2023-06-05T14:09:38;97848.00;;;31.30
19040;BMP180;9652;49.014;12.052;2023-06-05T14:12:05;97848.00;;;31.10
19040;BMP180;9652;49.014;12.052;2023-06-05T14:14:33;97857.00;;;31.10
19040;BMP180;9652;49.014;12.052;2023-06-05T14:17:00;97844.00;;;30.90
19040;BMP180;9652;49.014;12.052;2023-06-05T14:19:27;97846.00;;;30.80
19040;BMP180;9652;49.014;12.052;2023-06-05T14:21:54;97853.00;;;30.80
19040;BMP180;9652;49.014;12.052;2023-06-05T14:24:23;97854.00;;;30.80
19040;BMP180;9652;49.014;12.052;2023-06-05T14:26:53;97845.00;;;30.80